createdAt,value
2023-03-10T00:00:47.650Z,-1.70
2023-03-10T00:03:14.488Z,-1.70
2023-03-10T00:05:41.214Z,-1.70
2023-03-10T00:08:07.962Z,-1.70
2023-03-10T00:10:34.736Z,-1.70
2023-03-10T00:13:01.422Z,-1.70
2023-03-10T00:15:28.255Z,-1.70
2023-03-10T00:17:55.897Z,-1.70
2023-03-10T00:20:23.569Z,-1.60
2023-03-10T00:22:50.552Z,-1.40
2023-03-10T00:25:17.527Z,-1.30
2023-03-10T00:27:44.251Z,-1.20
2023-03-10T00:30:12.429Z,-1.20
2023-03-10T00:32:39.216Z,-1.20
2023-03-10T00:35:06.726Z,-1.20
2023-03-10T00:37:36.693Z,-1.10
2023-03-10T00:40:04.990Z,-1.10
2023-03-10T00:42:31.713Z,-1.00
2023-03-10T00:44:58.432Z,-1.60
2023-03-10T00:47:25.168Z,-1.10
2023-03-10T00:49:51.910Z,-1.30
2023-03-10T00:52:18.617Z,-1.40
2023-03-10T00:54:45.918Z,-1.40
2023-03-10T00:57:12.856Z,-1.30
2023-03-10T00:59:49.982Z,-0.70
2023-03-10T01:02:19.062Z,-1.00
2023-03-10T01:04:46.800Z,-0.90
2023-03-10T01:07:13.784Z,-0.80
2023-03-10T01:09:40.501Z,-0.60
2023-03-10T01:12:07.678Z,-0.50
2023-03-10T01:14:34.448Z,-0.50
2023-03-10T01:17:01.200Z,-0.70
2023-03-10T01:19:27.928Z,-0.80
2023-03-10T01:21:54.760Z,-0.90
2023-03-10T01:24:21.516Z,-1.00
2023-03-10T01:26:48.238Z,-1.00
2023-03-10T01:29:15.062Z,-1.00
2023-03-10T01:31:42.155Z,-0.80
2023-03-10T01:34:09.103Z,-0.60
2023-03-10T01:36:35.869Z,-0.40
2023-03-10T01:39:02.597Z,-0.20
2023-03-10T01:41:29.568Z,-0.10
2023-03-10T01:43:57.689Z,-0.10
2023-03-10T01:46:32.733Z,-0.30
2023-03-10T01:49:04.737Z,-0.50
2023-03-10T01:51:35.954Z,-0.80
2023-03-10T01:54:07.290Z,-1.00
2023-03-10T01:56:34.775Z,-1.00
2023-03-10T01:59:02.195Z,-1.00
2023-03-10T02:01:30.854Z,-0.90
2023-03-10T02:04:06.796Z,-0.90
2023-03-10T02:06:36.099Z,-0.80
2023-03-10T02:09:04.890Z,-0.80
2023-03-10T02:11:32.836Z,-0.70
2023-03-10T02:14:02.926Z,-0.70
2023-03-10T02:16:29.956Z,-0.70
2023-03-10T02:18:57.208Z,-0.90
2023-03-10T02:21:29.884Z,-0.70
2023-03-10T02:24:01.251Z,-0.60
2023-03-10T02:26:50.866Z,-0.60
2023-03-10T02:29:26.589Z,-0.50
2023-03-10T02:31:55.091Z,-0.50
2023-03-10T02:34:22.659Z,-0.50
2023-03-10T02:36:49.408Z,-0.70
2023-03-10T02:39:16.108Z,-0.80
2023-03-10T02:41:45.467Z,-1.10
2023-03-10T02:44:16.480Z,-1.30
2023-03-10T02:46:43.350Z,-1.30
2023-03-10T02:49:10.879Z,-1.30
2023-03-10T02:51:43.629Z,-1.30
2023-03-10T02:54:11.244Z,-1.20
2023-03-10T02:56:38.691Z,-1.10
2023-03-10T02:59:07.236Z,-1.20
2023-03-10T03:01:34.721Z,-1.30
2023-03-10T03:04:02.212Z,-1.30
2023-03-10T03:06:29.655Z,-1.50
2023-03-10T03:08:56.828Z,-1.60
2023-03-10T03:11:24.137Z,-1.70
2023-03-10T03:13:51.154Z,-1.80
2023-03-10T03:16:18.309Z,-1.90
2023-03-10T03:18:45.337Z,-1.90
2023-03-10T03:21:15.942Z,-1.50
2023-03-10T03:23:44.243Z,-1.80
2023-03-10T03:26:22.930Z,-1.70
2023-03-10T03:28:50.319Z,-1.70
2023-03-10T03:31:22.494Z,-1.70
2023-03-10T03:33:49.561Z,-1.80
2023-03-10T03:36:16.503Z,-1.70
2023-03-10T03:38:43.371Z,-1.70
2023-03-10T03:41:10.628Z,-1.70
2023-03-10T03:43:37.516Z,-1.60
2023-03-10T03:46:04.707Z,-1.90
2023-03-10T03:48:31.494Z,-2.00
2023-03-10T03:50:58.256Z,-2.00
2023-03-10T03:53:25.039Z,-2.10
2023-03-10T03:55:51.845Z,-2.10
2023-03-10T03:58:18.666Z,-2.20
2023-03-10T04:00:45.532Z,-2.10
2023-03-10T04:03:12.304Z,-2.10
2023-03-10T04:05:39.127Z,-2.00
2023-03-10T04:08:06.230Z,-2.10
2023-03-10T04:10:33.032Z,-2.30
2023-03-10T04:12:59.887Z,-2.50
2023-03-10T04:15:26.777Z,-2.60
2023-03-10T04:17:53.484Z,-2.70
2023-03-10T04:20:20.229Z,-2.80
2023-03-10T04:22:46.934Z,-2.80
2023-03-10T04:25:13.657Z,-2.70
2023-03-10T04:27:40.455Z,-2.60
2023-03-10T04:30:08.094Z,-2.60
2023-03-10T04:32:35.006Z,-2.60
2023-03-10T04:35:01.930Z,-2.70
2023-03-10T04:37:28.684Z,-2.80
2023-03-10T04:39:55.426Z,-2.70
2023-03-10T04:42:22.137Z,-2.70
2023-03-10T04:44:49.072Z,-2.70
2023-03-10T04:47:15.771Z,-2.70
2023-03-10T04:49:42.581Z,-2.70
2023-03-10T04:52:09.507Z,-2.70
2023-03-10T04:54:36.163Z,-2.80
2023-03-10T04:57:03.088Z,-2.80
2023-03-10T04:59:29.900Z,-2.80
2023-03-10T05:01:56.758Z,-2.80
2023-03-10T05:04:23.475Z,-2.80
2023-03-10T05:06:51.685Z,-2.80
2023-03-10T05:09:21.662Z,-2.80
2023-03-10T05:11:48.738Z,-2.90
2023-03-10T05:14:16.328Z,-2.80
2023-03-10T05:16:43.396Z,-2.80
2023-03-10T05:19:10.104Z,-2.80
2023-03-10T05:21:36.785Z,-2.80
2023-03-10T05:24:03.936Z,-2.70
2023-03-10T05:26:33.492Z,-3.70
2023-03-10T05:29:01.403Z,-2.70
2023-03-10T05:31:28.206Z,-2.60
2023-03-10T05:33:55.405Z,-2.70
2023-03-10T05:36:22.860Z,-2.70
2023-03-10T05:38:50.029Z,-2.70
2023-03-10T05:41:16.984Z,-2.80
2023-03-10T05:43:43.825Z,-2.80
2023-03-10T05:46:11.093Z,-2.80
2023-03-10T05:48:37.884Z,-2.70
2023-03-10T05:51:07.852Z,-2.50
2023-03-10T05:53:35.840Z,-2.40
2023-03-10T05:56:09.174Z,-2.20
2023-03-10T05:58:35.944Z,-2.10
2023-03-10T06:01:02.770Z,-2.10
2023-03-10T06:03:30.104Z,-2.10
2023-03-10T06:05:57.933Z,-2.10
2023-03-10T06:08:28.115Z,-2.10
2023-03-10T06:10:55.578Z,-2.10
2023-03-10T06:13:22.577Z,-2.20
2023-03-10T06:15:58.374Z,-2.20
2023-03-10T06:18:25.548Z,-2.40
2023-03-10T06:20:53.780Z,-2.50
2023-03-10T06:23:21.532Z,-2.60
2023-03-10T06:25:59.246Z,-1.80
2023-03-10T06:28:27.067Z,-2.60
2023-03-10T06:30:57.480Z,-2.50
2023-03-10T06:33:25.524Z,-2.40
2023-03-10T06:35:52.526Z,-2.30
2023-03-10T06:38:20.394Z,-2.20
2023-03-10T06:40:47.488Z,-2.10
2023-03-10T06:43:14.280Z,-2.00
2023-03-10T06:45:43.302Z,-2.00
2023-03-10T06:48:10.316Z,-1.90
2023-03-10T06:50:42.725Z,-1.80
2023-03-10T06:53:10.725Z,-1.70
2023-03-10T06:55:38.307Z,-1.60
2023-03-10T06:58:05.038Z,-1.50
2023-03-10T07:00:31.943Z,-1.50
2023-03-10T07:02:58.739Z,-1.40
2023-03-10T07:05:27.315Z,-1.30
2023-03-10T07:07:55.488Z,-1.20
2023-03-10T07:10:23.101Z,-1.10
2023-03-10T07:12:55.232Z,-0.90
2023-03-10T07:15:26.293Z,-0.70
2023-03-10T07:17:56.216Z,-0.60
2023-03-10T07:20:24.323Z,-0.40
2023-03-10T07:22:51.381Z,-0.20
2023-03-10T07:25:18.432Z,-0.10
2023-03-10T07:27:45.181Z,0.10
2023-03-10T07:30:12.444Z,0.00
2023-03-10T07:32:39.177Z,0.10
2023-03-10T07:35:06.552Z,0.20
2023-03-10T07:37:33.311Z,0.40
2023-03-10T07:39:59.987Z,0.40
2023-03-10T07:42:26.693Z,0.40
2023-03-10T07:44:53.461Z,0.50
2023-03-10T07:47:20.155Z,0.50
2023-03-10T07:49:47.169Z,0.40
2023-03-10T07:52:18.209Z,0.50
2023-03-10T07:54:45.269Z,0.60
2023-03-10T07:57:12.970Z,0.70
2023-03-10T07:59:40.320Z,0.70
2023-03-10T08:02:08.033Z,0.60
2023-03-10T08:04:34.939Z,0.60
2023-03-10T08:07:02.276Z,0.60
2023-03-10T08:09:29.724Z,0.70
2023-03-10T08:11:58.884Z,0.80
2023-03-10T08:14:27.690Z,0.80
2023-03-10T08:16:56.602Z,1.00
2023-03-10T08:19:24.679Z,1.20
2023-03-10T08:21:53.929Z,1.20
2023-03-10T08:24:20.663Z,1.20
2023-03-10T08:26:47.517Z,1.00
2023-03-10T08:29:14.257Z,0.90
2023-03-10T08:31:41.525Z,0.70
2023-03-10T08:34:08.421Z,0.50
2023-03-10T08:36:35.400Z,0.50
2023-03-10T08:39:02.561Z,0.40
2023-03-10T08:41:38.240Z,0.30
2023-03-10T08:44:05.801Z,0.30
2023-03-10T08:46:33.203Z,0.40
2023-03-10T08:48:59.947Z,0.50
2023-03-10T08:51:29.141Z,0.50
2023-03-10T08:53:56.013Z,0.50
2023-03-10T08:56:23.913Z,0.60
2023-03-10T08:58:50.856Z,0.70
2023-03-10T09:01:17.852Z,0.70
2023-03-10T09:03:45.577Z,0.70
2023-03-10T09:06:12.637Z,0.70
2023-03-10T09:08:41.351Z,0.60
2023-03-10T09:11:09.997Z,0.70
2023-03-10T09:13:36.742Z,0.70
2023-03-10T09:16:03.590Z,0.80
2023-03-10T09:18:30.329Z,0.90
2023-03-10T09:20:57.232Z,1.10
2023-03-10T09:23:23.990Z,1.30
2023-03-10T09:25:50.656Z,2.70
2023-03-10T09:28:18.809Z,1.10
2023-03-10T09:30:46.516Z,1.00
2023-03-10T09:33:19.731Z,0.90
2023-03-10T09:36:05.097Z,0.70
2023-03-10T09:38:32.529Z,0.70
2023-03-10T09:41:38.101Z,0.60
2023-03-10T09:44:23.760Z,0.50
2023-03-10T09:47:02.285Z,0.50
2023-03-10T09:49:34.748Z,0.50
2023-03-10T09:52:16.961Z,0.60
2023-03-10T09:55:00.182Z,0.60
2023-03-10T09:57:29.048Z,0.60
2023-03-10T10:00:00.768Z,0.70
2023-03-10T10:02:37.293Z,0.90
2023-03-10T10:05:12.645Z,1.10
2023-03-10T10:07:54.613Z,1.10
2023-03-10T10:10:27.890Z,1.10
2023-03-10T10:12:57.698Z,1.10
2023-03-10T10:15:26.792Z,1.10
2023-03-10T10:18:20.037Z,1.20
2023-03-10T10:21:13.099Z,1.30
2023-03-10T10:24:06.584Z,1.30
2023-03-10T10:26:33.259Z,1.30
2023-03-10T10:29:17.069Z,1.30
2023-03-10T10:32:09.379Z,1.40
2023-03-10T10:34:38.908Z,1.70
2023-03-10T10:37:24.295Z,1.80
2023-03-10T10:39:53.119Z,1.90
2023-03-10T10:42:27.546Z,3.40
2023-03-10T10:44:56.505Z,2.30
2023-03-10T10:47:29.061Z,2.60
2023-03-10T10:50:09.398Z,2.70
2023-03-10T10:52:36.228Z,2.80
2023-03-10T10:55:02.968Z,2.90
2023-03-10T10:57:33.459Z,3.10
2023-03-10T11:00:31.367Z,3.20
2023-03-10T11:02:59.083Z,3.20
2023-03-10T11:05:37.189Z,3.20
2023-03-10T11:08:23.675Z,3.20
2023-03-10T11:10:59.201Z,3.30
2023-03-10T11:13:43.455Z,3.40
2023-03-10T11:16:25.725Z,3.40
2023-03-10T11:19:17.074Z,3.30
2023-03-10T11:21:50.394Z,3.30
2023-03-10T11:24:32.679Z,3.50
2023-03-10T11:27:15.416Z,3.60
2023-03-10T11:29:58.164Z,3.70
2023-03-10T11:32:39.509Z,3.80
2023-03-10T11:35:21.117Z,3.80
2023-03-10T11:37:52.220Z,3.80
2023-03-10T11:41:00.054Z,3.80
2023-03-10T11:43:45.201Z,3.90
2023-03-10T11:46:31.224Z,4.10
2023-03-10T11:49:10.262Z,4.10
2023-03-10T11:51:52.988Z,4.20
2023-03-10T11:54:26.793Z,4.20
2023-03-10T11:56:54.202Z,4.30
2023-03-10T11:59:25.334Z,4.30
2023-03-10T12:01:54.858Z,4.40
2023-03-10T12:04:27.331Z,4.50
2023-03-10T12:07:40.579Z,4.60
2023-03-10T12:10:15.229Z,4.60
2023-03-10T12:12:44.497Z,4.60
2023-03-10T12:15:19.527Z,4.60
2023-03-10T12:17:49.232Z,4.80
2023-03-10T12:20:18.931Z,4.80
2023-03-10T12:22:52.642Z,4.90
2023-03-10T12:25:28.885Z,5.00
2023-03-10T12:28:22.259Z,5.10
2023-03-10T12:31:03.847Z,5.10
2023-03-10T12:33:30.489Z,5.30
2023-03-10T12:36:17.680Z,5.40
2023-03-10T12:39:15.113Z,5.50
2023-03-10T12:41:46.234Z,5.70
2023-03-10T12:44:34.329Z,5.70
2023-03-10T12:47:36.862Z,5.70
2023-03-10T12:50:29.822Z,5.80
2023-03-10T12:53:30.579Z,5.90
2023-03-10T12:56:12.516Z,5.90
2023-03-10T12:58:58.794Z,5.70
2023-03-10T13:01:32.412Z,5.50
2023-03-10T13:03:59.883Z,5.50
2023-03-10T13:06:41.652Z,5.40
2023-03-10T13:09:30.128Z,5.30
2023-03-10T13:12:06.955Z,5.30
2023-03-10T13:14:41.579Z,5.30
2023-03-10T13:17:22.703Z,5.20
2023-03-10T13:20:17.709Z,5.10
2023-03-10T13:22:55.504Z,5.10
2023-03-10T13:25:22.480Z,5.20
2023-03-10T13:27:49.307Z,5.30
2023-03-10T13:30:22.501Z,5.40
2023-03-10T13:33:01.378Z,5.50
2023-03-10T13:35:36.991Z,5.70
2023-03-10T13:38:16.720Z,5.60
2023-03-10T13:41:03.743Z,6.20
2023-03-10T13:43:41.605Z,5.30
2023-03-10T13:46:31.792Z,5.20
2023-03-10T13:49:06.516Z,5.10
2023-03-10T13:51:35.771Z,5.10
2023-03-10T13:54:27.414Z,5.10
2023-03-10T13:56:57.018Z,5.00
2023-03-10T13:59:30.062Z,5.00
2023-03-10T14:01:58.937Z,5.00
2023-03-10T14:04:52.205Z,6.30
2023-03-10T14:07:25.240Z,5.10
2023-03-10T14:10:08.628Z,5.00
2023-03-10T14:12:39.401Z,5.00
2023-03-10T14:15:26.946Z,4.90
2023-03-10T14:18:13.671Z,4.90
2023-03-10T14:20:43.143Z,4.90
2023-03-10T14:23:18.785Z,5.00
2023-03-10T14:25:51.697Z,5.00
2023-03-10T14:28:24.676Z,5.00
2023-03-10T14:30:51.655Z,4.90
2023-03-10T14:33:18.410Z,4.80
2023-03-10T14:35:46.134Z,4.90
2023-03-10T14:38:13.066Z,4.80
2023-03-10T14:40:43.348Z,4.70
2023-03-10T14:43:15.782Z,4.60
2023-03-10T14:45:44.423Z,4.60
2023-03-10T14:48:18.202Z,4.50
2023-03-10T14:50:45.822Z,4.50
2023-03-10T14:53:14.918Z,4.40
2023-03-10T14:55:43.469Z,4.20
2023-03-10T14:58:20.409Z,4.20
2023-03-10T15:00:47.920Z,4.10
2023-03-10T15:03:15.341Z,4.10
2023-03-10T15:05:48.600Z,4.10
2023-03-10T15:08:16.996Z,4.00
2023-03-10T15:10:48.370Z,4.00
2023-03-10T15:13:18.578Z,3.90
2023-03-10T15:15:46.830Z,3.80
2023-03-10T15:18:16.662Z,3.80
2023-03-10T15:20:43.814Z,3.70
2023-03-10T15:23:13.758Z,4.40
2023-03-10T15:25:44.124Z,3.70
2023-03-10T15:28:12.059Z,3.70
2023-03-10T15:30:38.761Z,3.70
2023-03-10T15:33:05.615Z,3.70
2023-03-10T15:35:32.588Z,3.60
2023-03-10T15:37:59.418Z,3.50
2023-03-10T15:40:28.349Z,3.50
2023-03-10T15:42:58.235Z,3.50
2023-03-10T15:45:26.743Z,3.50
2023-03-10T15:47:53.932Z,3.50
2023-03-10T15:50:21.657Z,3.40
2023-03-10T15:52:50.441Z,3.40
2023-03-10T15:55:17.330Z,3.30
2023-03-10T15:57:45.071Z,3.30
2023-03-10T16:00:12.831Z,3.20
2023-03-10T16:02:39.722Z,3.10
2023-03-10T16:05:06.864Z,3.00
2023-03-10T16:07:33.665Z,2.80
2023-03-10T16:10:00.428Z,2.70
2023-03-10T16:12:27.815Z,3.30
2023-03-10T16:14:55.406Z,2.50
2023-03-10T16:17:23.329Z,2.40
2023-03-10T16:19:50.440Z,2.40
2023-03-10T16:22:17.291Z,2.30
2023-03-10T16:24:44.140Z,2.30
2023-03-10T16:27:11.483Z,2.30
2023-03-10T16:29:40.397Z,2.30
2023-03-10T16:32:12.019Z,2.20
2023-03-10T16:34:38.809Z,2.10
2023-03-10T16:37:08.241Z,2.10
2023-03-10T16:39:35.131Z,2.10
2023-03-10T16:42:02.016Z,2.10
2023-03-10T16:44:28.792Z,2.00
2023-03-10T16:46:55.873Z,2.00
2023-03-10T16:49:22.863Z,2.00
2023-03-10T16:51:49.577Z,2.00
2023-03-10T16:54:19.651Z,2.00
2023-03-10T16:56:52.297Z,2.10
2023-03-10T16:59:24.715Z,2.00
2023-03-10T17:01:52.004Z,2.00
2023-03-10T17:04:19.956Z,1.90
2023-03-10T17:06:48.105Z,3.20
2023-03-10T17:09:15.891Z,1.80
2023-03-10T17:11:49.628Z,1.80
2023-03-10T17:14:17.464Z,1.80
2023-03-10T17:16:45.317Z,1.70
2023-03-10T17:19:15.239Z,1.70
2023-03-10T17:21:46.873Z,1.70
2023-03-10T17:24:16.239Z,1.60
2023-03-10T17:26:43.260Z,1.50
2023-03-10T17:29:10.580Z,1.50
2023-03-10T17:31:37.795Z,1.60
2023-03-10T17:34:10.914Z,1.60
2023-03-10T17:36:37.988Z,1.60
2023-03-10T17:39:06.322Z,1.60
2023-03-10T17:41:34.957Z,1.60
2023-03-10T17:44:04.397Z,1.60
2023-03-10T17:46:31.535Z,1.60
2023-03-10T17:48:58.517Z,1.50
2023-03-10T17:51:28.800Z,1.60
2023-03-10T17:53:58.680Z,1.60
2023-03-10T17:56:26.112Z,1.60
2023-03-10T17:58:53.672Z,1.60
2023-03-10T18:01:24.126Z,1.60
2023-03-10T18:03:50.944Z,1.60
2023-03-10T18:06:23.905Z,1.60
2023-03-10T18:08:51.188Z,1.60
2023-03-10T18:11:18.063Z,1.60
2023-03-10T18:13:44.872Z,1.70
2023-03-10T18:16:17.900Z,1.70
2023-03-10T18:18:45.484Z,1.60
2023-03-10T18:21:13.055Z,1.60
2023-03-10T18:23:40.317Z,1.50
2023-03-10T18:26:19.514Z,1.50
2023-03-10T18:28:46.293Z,1.60
2023-03-10T18:31:21.968Z,1.60
2023-03-10T18:33:48.737Z,1.70
2023-03-10T18:36:17.149Z,1.70
2023-03-10T18:38:44.936Z,1.70
2023-03-10T18:41:11.967Z,1.70
2023-03-10T18:43:38.937Z,1.70
2023-03-10T18:46:05.777Z,1.60
2023-03-10T18:48:32.780Z,1.60
2023-03-10T18:51:00.010Z,1.50
2023-03-10T18:53:27.900Z,1.50
2023-03-10T18:55:55.086Z,1.50
2023-03-10T18:58:22.619Z,1.40
2023-03-10T19:00:50.350Z,1.40
2023-03-10T19:03:18.522Z,1.30
2023-03-10T19:05:45.517Z,1.30
2023-03-10T19:08:12.329Z,1.30
2023-03-10T19:10:39.694Z,1.30
2023-03-10T19:13:07.626Z,1.30
2023-03-10T19:15:36.492Z,1.30
2023-03-10T19:18:03.908Z,1.30
2023-03-10T19:20:30.780Z,1.40
2023-03-10T19:22:57.714Z,1.40
2023-03-10T19:25:24.616Z,1.30
2023-03-10T19:27:51.656Z,1.40
2023-03-10T19:30:22.909Z,1.40
2023-03-10T19:32:50.026Z,1.30
2023-03-10T19:35:19.006Z,1.40
2023-03-10T19:37:47.195Z,1.40
2023-03-10T19:40:16.926Z,1.40
2023-03-10T19:42:44.347Z,1.30
2023-03-10T19:45:13.682Z,1.20
2023-03-10T19:47:41.586Z,1.10
2023-03-10T19:50:10.618Z,1.00
2023-03-10T19:52:39.064Z,1.00
2023-03-10T19:55:09.584Z,1.50
2023-03-10T19:57:36.798Z,0.90
2023-03-10T20:00:08.818Z,0.90
2023-03-10T20:02:35.599Z,0.80
2023-03-10T20:05:02.597Z,0.70
2023-03-10T20:07:29.386Z,0.70
2023-03-10T20:09:56.191Z,0.70
2023-03-10T20:12:22.939Z,0.60
2023-03-10T20:14:49.793Z,0.60
2023-03-10T20:17:19.201Z,0.50
2023-03-10T20:19:46.315Z,0.50
2023-03-10T20:22:15.212Z,0.40
2023-03-10T20:24:41.988Z,0.40
2023-03-10T20:27:08.767Z,0.30
2023-03-10T20:29:35.598Z,0.40
2023-03-10T20:32:04.335Z,0.30
2023-03-10T20:34:31.898Z,0.30
2023-03-10T20:36:58.812Z,0.30
2023-03-10T20:39:25.539Z,0.30
2023-03-10T20:41:52.390Z,0.30
2023-03-10T20:44:19.626Z,0.30
2023-03-10T20:46:46.402Z,0.30
2023-03-10T20:49:13.617Z,0.30
2023-03-10T20:51:40.709Z,0.30
2023-03-10T20:54:07.626Z,0.40
2023-03-10T20:56:34.410Z,0.50
2023-03-10T20:59:01.823Z,0.50
2023-03-10T21:01:30.152Z,0.50
2023-03-10T21:03:58.528Z,0.50
2023-03-10T21:06:26.948Z,0.50
2023-03-10T21:08:54.065Z,0.50
2023-03-10T21:11:21.118Z,0.40
2023-03-10T21:13:47.898Z,0.50
2023-03-10T21:16:14.707Z,0.50
2023-03-10T21:18:41.444Z,0.60
2023-03-10T21:21:09.783Z,0.60
2023-03-10T21:23:38.118Z,0.70
2023-03-10T21:26:23.073Z,0.70
2023-03-10T21:28:49.797Z,0.70
2023-03-10T21:31:16.949Z,0.80
2023-03-10T21:33:43.857Z,0.80
2023-03-10T21:36:15.718Z,0.80
2023-03-10T21:38:43.162Z,0.70
2023-03-10T21:41:12.205Z,0.80
2023-03-10T21:43:38.900Z,0.80
2023-03-10T21:46:06.490Z,0.80
2023-03-10T21:48:33.425Z,0.80
2023-03-10T21:51:00.175Z,0.90
2023-03-10T21:53:27.166Z,0.90
2023-03-10T21:55:54.288Z,0.90
2023-03-10T21:58:23.450Z,1.00
2023-03-10T22:00:50.556Z,0.90
2023-03-10T22:03:17.582Z,0.90
2023-03-10T22:05:44.467Z,0.90
2023-03-10T22:08:11.204Z,1.00
2023-03-10T22:10:38.068Z,1.00
2023-03-10T22:13:04.740Z,0.90
2023-03-10T22:15:31.495Z,1.00
2023-03-10T22:17:58.263Z,1.10
2023-03-10T22:20:27.368Z,1.10
2023-03-10T22:22:54.732Z,1.10
2023-03-10T22:25:21.672Z,1.20
2023-03-10T22:27:51.183Z,1.30
2023-03-10T22:30:19.389Z,1.30
2023-03-10T22:32:46.473Z,1.20
2023-03-10T22:35:13.604Z,1.20
2023-03-10T22:37:41.153Z,1.20
2023-03-10T22:40:12.086Z,1.10
2023-03-10T22:42:39.848Z,1.00
2023-03-10T22:45:13.940Z,0.90
2023-03-10T22:47:40.957Z,0.90
2023-03-10T22:50:08.418Z,0.90
2023-03-10T22:52:35.172Z,1.00
2023-03-10T22:55:01.982Z,0.90
2023-03-10T22:57:29.036Z,0.90
2023-03-10T22:59:55.865Z,0.80
2023-03-10T23:02:23.086Z,0.70
2023-03-10T23:04:49.868Z,0.60
2023-03-10T23:07:16.674Z,0.60
2023-03-10T23:09:43.643Z,0.60
2023-03-10T23:12:11.043Z,0.70
2023-03-10T23:14:37.957Z,0.70
2023-03-10T23:17:04.790Z,0.70
2023-03-10T23:19:33.531Z,0.60
2023-03-10T23:22:00.519Z,0.60
2023-03-10T23:24:27.534Z,0.50
2023-03-10T23:26:54.381Z,0.40
2023-03-10T23:29:21.359Z,0.50
2023-03-10T23:31:48.165Z,0.50
2023-03-10T23:34:15.057Z,0.40
2023-03-10T23:36:42.006Z,0.30
2023-03-10T23:39:11.410Z,0.30
2023-03-10T23:41:38.351Z,0.40
2023-03-10T23:44:05.161Z,2.10
2023-03-10T23:46:31.999Z,0.60
2023-03-10T23:48:58.935Z,0.70
2023-03-10T23:51:26.302Z,0.80
2023-03-10T23:53:53.299Z,0.80
2023-03-10T23:56:20.085Z,0.80
2023-03-10T23:58:46.930Z,0.90
